Time;durP1;ratioP1;P1;durP2;ratioP2;P2;SDS_P1;SDS_P2;PMS_P1;PMS_P2;Temp;Humidity;BMP_temperature;BMP_pressure;BME280_temperature;BME280_humidity;BME280_pressure;Samples;Min_cycle;Max_cycle;Signal;HPM_P1;HPM_P2
2023/07/01 00:01:51;;;;;;;6.32;2.40;;;21.50;52.20;;;;;;5073897;28;20024;-66
2023/07/01 00:04:17;;;;;;;8.32;2.60;;;21.50;52.00;;;;;;5055418;28;20063;-66
2023/07/01 00:06:43;;;;;;;7.22;2.58;;;21.50;51.70;;;;;;5072898;28;20083;-65
2023/07/01 00:09:10;;;;;;;6.32;2.20;;;21.40;51.40;;;;;;5054449;28;20082;-66
2023/07/01 00:11:37;;;;;;;5.53;2.92;;;21.40;51.40;;;;;;5054841;28;20059;-66
2023/07/01 00:14:03;;;;;;;4.70;2.10;;;21.40;51.30;;;;;;5055724;28;20115;-66
2023/07/01 00:16:28;;;;;;;5.30;2.10;;;21.40;51.30;;;;;;5055838;28;20107;-66
2023/07/01 00:18:54;;;;;;;5.75;2.10;;;21.40;51.10;;;;;;5051404;28;20024;-65
2023/07/01 00:21:20;;;;;;;7.03;2.40;;;21.40;51.10;;;;;;5073265;28;20291;-66
2023/07/01 00:23:45;;;;;;;6.40;2.35;;;21.40;50.90;;;;;;5072526;28;20501;-66
2023/07/01 00:26:11;;;;;;;7.38;2.25;;;21.40;50.80;;;;;;5072969;28;20059;-66
2023/07/01 00:28:37;;;;;;;6.05;2.38;;;21.40;50.70;;;;;;5035255;28;20449;-65
2023/07/01 00:31:03;;;;;;;5.20;2.22;;;21.40;50.60;;;;;;5069695;28;20036;-65
2023/07/01 00:33:29;;;;;;;5.75;2.47;;;21.40;50.50;;;;;;5072582;28;20032;-66
2023/07/01 00:35:54;;;;;;;6.85;2.15;;;21.40;50.40;;;;;;5072056;28;20090;-66
2023/07/01 00:38:20;;;;;;;5.05;1.92;;;21.30;50.30;;;;;;5072434;28;20024;-66
2023/07/01 00:40:46;;;;;;;6.43;2.25;;;21.40;50.30;;;;;;5053185;28;20032;-66
2023/07/01 00:43:12;;;;;;;5.70;2.17;;;21.30;50.20;;;;;;5055638;28;20027;-66
2023/07/01 00:45:38;;;;;;;6.65;2.30;;;21.30;50.10;;;;;;5072036;28;20040;-66
2023/07/01 00:48:03;;;;;;;6.50;2.10;;;21.30;50.10;;;;;;5040506;28;20028;-65
2023/07/01 00:50:30;;;;;;;7.28;1.80;;;21.30;50.10;;;;;;5069931;28;20028;-66
2023/07/01 00:52:58;;;;;;;6.88;2.38;;;21.30;50.10;;;;;;5055129;28;20027;-66
2023/07/01 00:55:24;;;;;;;8.18;2.40;;;21.30;50.00;;;;;;5054185;28;20025;-65
2023/07/01 00:57:50;;;;;;;8.10;2.42;;;21.30;49.90;;;;;;5054737;28;20040;-65
2023/07/01 01:00:16;;;;;;;7.93;2.25;;;21.30;49.90;;;;;;5069083;28;20371;-66
2023/07/01 01:03:15;;;;;;;6.57;2.10;;;21.30;49.70;;;;;;5071351;28;20365;-66
2023/07/01 01:05:49;;;;;;;6.57;2.10;;;21.20;49.50;;;;;;5053397;28;20028;-66
2023/07/01 01:08:21;;;;;;;5.10;1.70;;;21.30;49.70;;;;;;5072953;28;20060;-66
2023/07/01 01:10:49;;;;;;;6.97;2.17;;;21.30;49.70;;;;;;5050805;28;20024;-66
2023/07/01 01:13:17;;;;;;;6.53;1.70;;;21.30;49.70;;;;;;5054232;28;20119;-66
2023/07/01 01:15:44;;;;;;;6.68;2.40;;;21.30;49.80;;;;;;5072352;28;20024;-66
2023/07/01 01:18:12;;;;;;;7.20;2.28;;;21.20;49.90;;;;;;5054300;28;20054;-65
2023/07/01 01:20:40;;;;;;;5.85;2.17;;;21.20;50.00;;;;;;5051010;28;20028;-66
2023/07/01 01:23:18;;;;;;;6.75;2.30;;;21.20;50.20;;;;;;5054414;28;20043;-66
2023/07/01 01:26:13;;;;;;;5.57;2.20;;;21.20;50.40;;;;;;5051973;28;20025;-66
2023/07/01 01:28:39;;;;;;;5.88;1.95;;;21.20;50.50;;;;;;5037957;28;20075;-65
2023/07/01 01:31:05;;;;;;;6.15;2.13;;;21.20;50.60;;;;;;5049684;28;20032;-66
2023/07/01 01:33:31;;;;;;;5.65;2.10;;;21.20;50.70;;;;;;5054169;28;20029;-65
2023/07/01 01:36:12;;;;;;;6.90;2.25;;;21.20;50.70;;;;;;5052636;28;20044;-65
2023/07/01 01:38:41;;;;;;;6.60;2.33;;;21.20;50.70;;;;;;5054065;28;20021;-66
2023/07/01 01:41:16;;;;;;;6.25;1.88;;;21.20;50.80;;;;;;5035724;28;20024;-66
2023/07/01 01:44:07;;;;;;;6.10;1.98;;;21.20;50.90;;;;;;5071951;28;20302;-65
2023/07/01 01:46:35;;;;;;;5.10;2.10;;;21.20;51.00;;;;;;5071537;28;20075;-66
2023/07/01 01:49:03;;;;;;;5.05;2.03;;;21.20;51.00;;;;;;5070121;28;20070;-66
2023/07/01 01:51:32;;;;;;;5.32;1.92;;;21.20;50.90;;;;;;5052930;28;20445;-66
2023/07/01 01:53:58;;;;;;;5.07;2.05;;;21.20;51.00;;;;;;5071612;28;20056;-66
2023/07/01 01:56:26;;;;;;;7.03;2.00;;;21.20;51.00;;;;;;5053543;28;20024;-66
2023/07/01 01:58:53;;;;;;;6.57;2.75;;;21.20;51.10;;;;;;5053855;28;20048;-66
2023/07/01 02:01:18;;;;;;;5.72;2.00;;;21.20;51.30;;;;;;5035942;28;20036;-66
2023/07/01 02:03:47;;;;;;;6.60;2.13;;;21.20;51.30;;;;;;5071113;28;20017;-66
2023/07/01 02:06:13;;;;;;;4.30;1.95;;;21.10;51.30;;;;;;5053677;28;20036;-65
2023/07/01 02:08:39;;;;;;;5.78;2.03;;;21.20;51.40;;;;;;5037796;28;20024;-66
2023/07/01 02:11:05;;;;;;;7.68;2.40;;;21.20;51.50;;;;;;5070373;28;20028;-66
2023/07/01 02:13:31;;;;;;;6.82;2.20;;;21.20;51.80;;;;;;5068192;28;20035;-65
2023/07/01 02:15:56;;;;;;;5.32;1.83;;;21.10;52.00;;;;;;5052315;28;20056;-65
2023/07/01 02:18:22;;;;;;;6.03;2.13;;;21.10;52.20;;;;;;5054109;28;20013;-65
2023/07/01 02:20:48;;;;;;;6.03;1.83;;;21.10;52.40;;;;;;5054291;28;20470;-65
2023/07/01 02:23:13;;;;;;;7.28;2.70;;;21.10;52.60;;;;;;5054871;28;20048;-65
2023/07/01 02:25:39;;;;;;;8.50;2.55;;;21.10;52.80;;;;;;5056720;28;20044;-65
2023/07/01 02:28:06;;;;;;;4.68;1.90;;;21.00;53.00;;;;;;5073111;28;20424;-66
2023/07/01 02:30:34;;;;;;;5.50;1.75;;;21.00;53.20;;;;;;5075436;28;20124;-66
2023/07/01 02:33:00;;;;;;;5.72;2.50;;;21.00;53.50;;;;;;5070670;28;20028;-66
2023/07/01 02:35:26;;;;;;;7.30;2.08;;;21.00;53.60;;;;;;5055484;28;20505;-66
2023/07/01 02:37:51;;;;;;;4.97;2.20;;;21.00;53.80;;;;;;5056554;28;20024;-66
2023/07/01 02:40:17;;;;;;;7.22;2.40;;;20.90;54.20;;;;;;5075591;28;20107;-66
2023/07/01 02:42:43;;;;;;;5.38;1.90;;;20.90;54.60;;;;;;5074435;28;20021;-66
2023/07/01 02:45:09;;;;;;;6.22;2.13;;;20.80;55.00;;;;;;5071264;28;20346;-65
2023/07/01 02:47:35;;;;;;;4.28;1.83;;;20.80;55.40;;;;;;5056327;28;20468;-65
2023/07/01 02:50:02;;;;;;;6.00;2.13;;;20.80;55.90;;;;;;5075296;28;20046;-65
2023/07/01 02:52:28;;;;;;;5.72;2.10;;;20.70;56.30;;;;;;5073463;28;20090;-65
2023/07/01 02:54:54;;;;;;;6.38;2.00;;;20.70;56.50;;;;;;5074045;28;20104;-66
2023/07/01 02:57:19;;;;;;;5.80;2.10;;;20.70;56.90;;;;;;5054836;28;20025;-65
2023/07/01 02:59:47;;;;;;;7.68;1.92;;;20.70;57.00;;;;;;5056494;28;20358;-66
2023/07/01 03:02:13;;;;;;;4.97;1.85;;;20.70;57.10;;;;;;5056472;28;20087;-65
2023/07/01 03:04:39;;;;;;;5.43;2.10;;;20.70;57.10;;;;;;5040984;28;20444;-65
2023/07/01 03:07:05;;;;;;;6.78;2.20;;;20.70;57.20;;;;;;5054846;28;20021;-66
2023/07/01 03:09:30;;;;;;;4.93;2.00;;;20.60;57.40;;;;;;5056006;28;20055;-65
2023/07/01 03:11:56;;;;;;;6.60;2.42;;;20.70;57.70;;;;;;5056317;28;20032;-65
2023/07/01 03:14:22;;;;;;;5.88;2.00;;;20.60;58.00;;;;;;5054597;28;20024;-65
2023/07/01 03:16:49;;;;;;;8.27;2.17;;;20.60;58.10;;;;;;5055057;28;20041;-65
2023/07/01 03:19:15;;;;;;;6.90;2.03;;;20.60;58.30;;;;;;5072530;28;20040;-66
2023/07/01 03:21:42;;;;;;;4.47;1.98;;;20.60;58.40;;;;;;5052393;28;20116;-66
2023/07/01 03:24:08;;;;;;;5.97;2.13;;;20.60;58.50;;;;;;5052469;28;20026;-65
2023/07/01 03:26:35;;;;;;;5.68;2.20;;;20.60;58.60;;;;;;5039455;28;20115;-65
2023/07/01 03:29:02;;;;;;;5.25;2.15;;;20.60;58.70;;;;;;5070041;28;20204;-66
2023/07/01 03:31:28;;;;;;;5.45;1.90;;;20.60;58.90;;;;;;5050415;28;20365;-65
2023/07/01 03:33:54;;;;;;;3.90;1.75;;;20.60;59.10;;;;;;5055015;28;20066;-65
2023/07/01 03:36:19;;;;;;;6.93;2.08;;;20.60;59.40;;;;;;5056274;28;20029;-65
2023/07/01 03:38:45;;;;;;;4.43;1.73;;;20.60;59.80;;;;;;5040128;28;20040;-65
2023/07/01 03:41:11;;;;;;;5.43;2.15;;;20.60;60.30;;;;;;5055623;28;20048;-65
2023/07/01 03:43:37;;;;;;;5.15;2.00;;;20.50;60.80;;;;;;5055829;28;20031;-65
2023/07/01 03:46:02;;;;;;;4.15;1.60;;;20.50;61.20;;;;;;5072507;28;20104;-65
2023/07/01 03:48:29;;;;;;;7.55;2.00;;;20.50;61.50;;;;;;5074407;28;20369;-65
2023/07/01 03:50:55;;;;;;;4.93;1.92;;;20.40;61.70;;;;;;5071283;28;20025;-65
2023/07/01 03:53:21;;;;;;;5.60;1.90;;;20.40;62.00;;;;;;5054727;28;20382;-65
2023/07/01 03:55:47;;;;;;;3.97;1.85;;;20.40;62.10;;;;;;5072351;28;20033;-65
2023/07/01 03:58:21;;;;;;;4.32;2.03;;;20.40;62.20;;;;;;5056560;28;20098;-65
2023/07/01 04:00:48;;;;;;;4.03;1.63;;;20.40;62.30;;;;;;5055420;28;20116;-66
2023/07/01 04:03:14;;;;;;;4.28;1.88;;;20.40;62.50;;;;;;5054621;28;20433;-65
2023/07/01 04:05:40;;;;;;;5.30;2.00;;;20.40;62.50;;;;;;5071283;28;20035;-65
2023/07/01 04:08:05;;;;;;;5.18;2.33;;;20.30;62.60;;;;;;5056254;28;20115;-65
2023/07/01 04:10:31;;;;;;;5.50;2.30;;;20.30;62.70;;;;;;5072938;28;20111;-66
2023/07/01 04:13:00;;;;;;;5.15;2.08;;;20.30;62.80;;;;;;5053160;28;20047;-65
2023/07/01 04:15:26;;;;;;;5.63;1.90;;;20.30;62.80;;;;;;5068839;28;20025;-66
2023/07/01 04:17:52;;;;;;;4.32;1.85;;;20.30;62.80;;;;;;5055189;28;20536;-66
2023/07/01 04:20:20;;;;;;;5.10;2.10;;;20.30;62.80;;;;;;5073310;28;20099;-66
2023/07/01 04:22:47;;;;;;;4.53;2.15;;;20.30;62.80;;;;;;5069716;28;20105;-66
2023/07/01 04:25:13;;;;;;;7.00;2.08;;;20.40;62.90;;;;;;5070967;28;20365;-66
2023/07/01 04:27:42;;;;;;;5.00;2.10;;;20.40;63.00;;;;;;5068684;28;20031;-66
2023/07/01 04:30:10;;;;;;;5.75;2.08;;;20.30;63.10;;;;;;5055582;28;20042;-65
2023/07/01 04:32:36;;;;;;;5.72;2.20;;;20.40;63.50;;;;;;5053943;28;20035;-64
2023/07/01 04:35:02;;;;;;;5.68;1.83;;;20.40;63.80;;;;;;5055823;28;20086;-65
2023/07/01 04:37:28;;;;;;;4.20;1.85;;;20.30;64.10;;;;;;5069716;28;20116;-65
2023/07/01 04:39:54;;;;;;;4.45;1.75;;;20.30;64.50;;;;;;5074264;28;20112;-65
2023/07/01 04:42:19;;;;;;;4.82;2.00;;;20.30;64.80;;;;;;5073325;28;20396;-66
2023/07/01 04:44:53;;;;;;;3.67;1.65;;;20.30;65.00;;;;;;5053966;28;20021;-65
2023/07/01 04:47:23;;;;;;;6.13;1.80;;;20.20;65.20;;;;;;5053926;28;20039;-65
2023/07/01 04:49:52;;;;;;;3.80;1.67;;;20.20;65.50;;;;;;5053646;28;20465;-65
2023/07/01 04:52:23;;;;;;;4.93;2.17;;;20.20;65.80;;;;;;5072687;28;20178;-65
2023/07/01 04:54:49;;;;;;;3.30;1.60;;;20.20;66.10;;;;;;5059798;28;20075;-66
2023/07/01 04:57:15;;;;;;;5.03;1.92;;;20.20;66.30;;;;;;5053640;28;20033;-65
2023/07/01 04:59:41;;;;;;;4.50;1.90;;;20.20;66.70;;;;;;5072472;28;20100;-66
2023/07/01 05:02:07;;;;;;;5.30;1.98;;;20.10;67.00;;;;;;5073596;28;20020;-66
2023/07/01 05:04:32;;;;;;;4.85;1.90;;;20.10;67.40;;;;;;5073407;28;20460;-66
2023/07/01 05:06:58;;;;;;;4.28;1.95;;;20.10;67.80;;;;;;5046032;28;20400;-65
2023/07/01 05:09:24;;;;;;;4.38;2.00;;;20.00;68.20;;;;;;5068744;28;20107;-66
2023/07/01 05:11:50;;;;;;;5.03;1.90;;;20.00;68.60;;;;;;5072960;28;20322;-66
2023/07/01 05:14:16;;;;;;;4.40;1.90;;;20.00;69.10;;;;;;5074620;28;20322;-66
2023/07/01 05:16:41;;;;;;;3.65;1.75;;;19.90;69.30;;;;;;5072201;28;20081;-66
2023/07/01 05:19:07;;;;;;;3.78;1.70;;;19.90;69.60;;;;;;5062609;28;20029;-66
2023/07/01 05:21:33;;;;;;;4.65;2.15;;;19.90;69.80;;;;;;5073145;28;20112;-68
2023/07/01 05:23:59;;;;;;;3.50;1.50;;;19.80;69.90;;;;;;5073332;28;20369;-66
2023/07/01 05:26:26;;;;;;;3.42;1.50;;;19.80;70.10;;;;;;5049784;28;20024;-66
2023/07/01 05:28:52;;;;;;;3.58;1.70;;;19.80;70.30;;;;;;5073790;28;20388;-66
2023/07/01 05:31:17;;;;;;;7.88;1.90;;;19.80;70.50;;;;;;5070874;28;20024;-65
2023/07/01 05:33:44;;;;;;;4.45;1.80;;;19.80;70.60;;;;;;5073064;28;20077;-66
2023/07/01 05:36:10;;;;;;;5.65;1.98;;;19.80;70.70;;;;;;5072102;28;20024;-65
2023/07/01 05:38:36;;;;;;;4.57;2.00;;;19.80;70.90;;;;;;5073796;28;20032;-65
2023/07/01 05:41:02;;;;;;;4.50;2.05;;;19.80;71.00;;;;;;5052115;28;20446;-64
2023/07/01 05:43:27;;;;;;;5.25;1.83;;;19.80;71.20;;;;;;5072804;28;20052;-66
2023/07/01 05:45:53;;;;;;;3.58;2.00;;;19.80;71.30;;;;;;5071376;28;20036;-65
2023/07/01 05:48:19;;;;;;;3.67;1.77;;;19.80;71.30;;;;;;5073889;28;20028;-65
2023/07/01 05:50:45;;;;;;;5.25;2.20;;;19.80;71.40;;;;;;5072492;28;20036;-65
2023/07/01 05:53:10;;;;;;;4.30;1.95;;;19.80;71.50;;;;;;5054379;28;20333;-64
2023/07/01 05:55:36;;;;;;;4.22;1.92;;;19.80;71.60;;;;;;5035573;28;20426;-65
2023/07/01 05:58:02;;;;;;;6.20;2.45;;;19.80;71.60;;;;;;5052734;28;20036;-65
2023/07/01 06:00:28;;;;;;;4.40;1.83;;;19.80;71.60;;;;;;5074689;28;20036;-65
2023/07/01 06:02:54;;;;;;;3.90;1.73;;;19.80;71.60;;;;;;5077390;28;20341;-65
2023/07/01 06:05:20;;;;;;;5.03;1.90;;;19.80;71.70;;;;;;5038443;28;20016;-64
2023/07/01 06:07:46;;;;;;;5.35;1.80;;;19.80;71.80;;;;;;5071774;28;20349;-65
2023/07/01 06:10:11;;;;;;;4.28;1.77;;;19.90;71.90;;;;;;5040948;28;20038;-65
2023/07/01 06:12:37;;;;;;;4.18;1.85;;;19.80;71.80;;;;;;5059500;28;20447;-65
2023/07/01 06:15:04;;;;;;;3.90;1.80;;;19.90;71.90;;;;;;5057013;28;20066;-65
2023/07/01 06:17:30;;;;;;;4.20;1.80;;;19.90;72.00;;;;;;5052565;28;20421;-64
2023/07/01 06:19:55;;;;;;;4.20;1.70;;;19.90;72.10;;;;;;5053608;28;20063;-65
2023/07/01 06:22:21;;;;;;;4.22;1.70;;;19.90;72.10;;;;;;5072960;28;20116;-66
2023/07/01 06:24:47;;;;;;;3.40;1.85;;;19.90;72.20;;;;;;5032309;28;20035;-65
2023/07/01 06:27:12;;;;;;;3.85;1.77;;;19.90;72.20;;;;;;5071438;28;20032;-65
2023/07/01 06:29:38;;;;;;;5.60;1.90;;;19.80;72.30;;;;;;5058592;28;20043;-67
2023/07/01 06:32:04;;;;;;;3.65;1.70;;;19.90;72.50;;;;;;5040868;28;20111;-65
2023/07/01 06:34:30;;;;;;;3.97;1.67;;;19.90;72.50;;;;;;5059624;28;20112;-65
2023/07/01 06:36:56;;;;;;;4.43;1.90;;;20.00;72.50;;;;;;5041894;28;20123;-66
2023/07/01 06:39:21;;;;;;;5.18;2.00;;;20.00;72.50;;;;;;5076273;28;20025;-65
2023/07/01 06:41:47;;;;;;;4.25;1.67;;;20.00;72.50;;;;;;5059155;28;20446;-66
2023/07/01 06:44:14;;;;;;;3.30;1.52;;;20.00;72.40;;;;;;5077148;28;20024;-65
2023/07/01 06:46:40;;;;;;;3.45;1.55;;;20.00;72.30;;;;;;5077073;28;20025;-66
2023/07/01 06:49:05;;;;;;;4.22;1.95;;;20.00;72.40;;;;;;5057655;28;20028;-66
2023/07/01 06:51:31;;;;;;;3.28;1.52;;;20.00;72.40;;;;;;5042157;28;20043;-67
2023/07/01 06:53:57;;;;;;;3.15;1.60;;;20.00;72.50;;;;;;5076993;28;20058;-65
2023/07/01 06:56:22;;;;;;;3.10;1.48;;;20.10;72.60;;;;;;5058735;28;20127;-65
2023/07/01 06:58:48;;;;;;;2.40;1.30;;;20.00;72.60;;;;;;5075064;28;20040;-65
2023/07/01 07:01:14;;;;;;;3.75;1.70;;;20.00;72.60;;;;;;5058888;28;20151;-65
2023/07/01 07:03:40;;;;;;;3.90;1.80;;;20.00;72.70;;;;;;5058121;28;20164;-66
2023/07/01 07:06:06;;;;;;;3.70;1.63;;;20.00;72.70;;;;;;5063010;28;20441;-65
2023/07/01 07:08:32;;;;;;;3.28;1.65;;;20.00;72.80;;;;;;5075267;28;20159;-65
2023/07/01 07:10:59;;;;;;;4.40;1.65;;;20.00;72.80;;;;;;5075674;28;20238;-65
2023/07/01 07:13:25;;;;;;;3.58;1.48;;;20.00;72.90;;;;;;5058442;28;20055;-65
2023/07/01 07:15:50;;;;;;;4.22;1.75;;;20.10;72.90;;;;;;5058965;28;20059;-66
2023/07/01 07:18:16;;;;;;;3.00;1.50;;;20.10;72.80;;;;;;5058662;28;20120;-66
2023/07/01 07:20:42;;;;;;;3.90;1.80;;;20.10;72.80;;;;;;5054462;28;20117;-66
2023/07/01 07:23:08;;;;;;;4.00;1.77;;;20.10;73.00;;;;;;5076132;28;20013;-66
2023/07/01 07:25:33;;;;;;;4.93;1.80;;;20.10;73.00;;;;;;5075979;28;20111;-66
2023/07/01 07:28:00;;;;;;;3.00;1.80;;;20.10;73.20;;;;;;5076411;28;20082;-66
2023/07/01 07:30:26;;;;;;;3.42;1.50;;;20.10;73.40;;;;;;5049765;28;20437;-66
2023/07/01 07:32:52;;;;;;;4.38;1.85;;;20.10;73.60;;;;;;5075752;28;20111;-66
2023/07/01 07:35:18;;;;;;;2.97;1.70;;;20.10;73.70;;;;;;5057698;28;20055;-66
2023/07/01 07:37:45;;;;;;;4.78;1.75;;;20.10;73.70;;;;;;5057406;28;20404;-66
2023/07/01 07:40:11;;;;;;;3.78;1.70;;;20.10;73.80;;;;;;5056274;28;20029;-65
2023/07/01 07:42:37;;;;;;;4.15;1.70;;;20.10;73.80;;;;;;5056314;28;20100;-66
2023/07/01 07:45:06;;;;;;;3.63;1.73;;;20.10;73.80;;;;;;5054422;28;20326;-65
2023/07/01 07:47:32;;;;;;;3.58;1.60;;;20.10;73.90;;;;;;5075528;28;20021;-65
2023/07/01 07:49:57;;;;;;;4.88;1.80;;;20.10;74.00;;;;;;5055773;28;20043;-65
2023/07/01 07:52:23;;;;;;;4.57;1.70;;;20.10;74.00;;;;;;5040237;28;20306;-65
2023/07/01 07:54:49;;;;;;;4.03;1.60;;;20.00;74.10;;;;;;5074832;28;20092;-66
2023/07/01 07:57:15;;;;;;;4.43;1.70;;;20.10;74.30;;;;;;5058096;28;20024;-65
2023/07/01 07:59:41;;;;;;;3.20;1.58;;;20.10;74.30;;;;;;5075440;28;20028;-65
2023/07/01 08:02:08;;;;;;;4.18;1.70;;;20.10;74.20;;;;;;5074259;28;20326;-66
2023/07/01 08:04:35;;;;;;;3.47;1.58;;;20.10;74.30;;;;;;5057678;28;20039;-66
2023/07/01 08:07:00;;;;;;;4.18;1.90;;;20.10;74.20;;;;;;5075728;28;20047;-65
2023/07/01 08:09:26;;;;;;;3.60;1.85;;;20.10;74.10;;;;;;5075565;28;20136;-65
2023/07/01 08:11:53;;;;;;;3.15;1.50;;;20.10;74.20;;;;;;5040927;28;20035;-65
2023/07/01 08:14:19;;;;;;;3.20;1.45;;;20.10;74.20;;;;;;5056172;28;20029;-66
2023/07/01 08:16:45;;;;;;;3.15;1.60;;;20.10;74.30;;;;;;5057684;28;20066;-65
2023/07/01 08:19:11;;;;;;;2.58;1.45;;;20.10;74.40;;;;;;5057969;28;20354;-65
2023/07/01 08:21:37;;;;;;;3.25;1.60;;;20.10;74.50;;;;;;5056936;28;20116;-65
2023/07/01 08:24:12;;;;;;;3.90;1.90;;;20.10;74.50;;;;;;5073648;28;20437;-65
2023/07/01 08:26:38;;;;;;;4.18;1.80;;;20.10;74.70;;;;;;5056795;28;20025;-65
2023/07/01 08:29:07;;;;;;;3.40;1.63;;;20.10;74.80;;;;;;5057520;28;20082;-65
2023/07/01 08:31:33;;;;;;;3.55;1.63;;;20.20;75.00;;;;;;5075030;28;20035;-65
2023/07/01 08:33:58;;;;;;;2.88;1.50;;;20.20;74.90;;;;;;5073232;28;20066;-65
2023/07/01 08:36:25;;;;;;;3.00;1.55;;;20.20;75.00;;;;;;5073799;28;20108;-65
2023/07/01 08:38:51;;;;;;;3.30;1.60;;;20.20;75.00;;;;;;5056988;28;20116;-65
2023/07/01 08:41:18;;;;;;;3.58;1.55;;;20.30;75.00;;;;;;5074753;28;20044;-66
2023/07/01 08:43:47;;;;;;;3.90;1.77;;;20.30;75.10;;;;;;5073513;28;20093;-65
2023/07/01 08:46:15;;;;;;;3.17;1.63;;;20.30;75.10;;;;;;5074022;28;20032;-66
2023/07/01 08:48:44;;;;;;;4.60;1.75;;;20.30;75.20;;;;;;5056706;28;20035;-65
2023/07/01 08:51:15;;;;;;;3.88;1.80;;;20.30;75.40;;;;;;5074384;28;20029;-66
2023/07/01 08:53:42;;;;;;;2.80;1.50;;;20.30;75.60;;;;;;5074248;28;20040;-66
2023/07/01 08:56:09;;;;;;;2.58;1.42;;;20.30;75.70;;;;;;5055634;28;20044;-66
2023/07/01 08:58:35;;;;;;;3.80;1.77;;;20.30;75.80;;;;;;5039453;28;20025;-66
2023/07/01 09:01:01;;;;;;;3.00;1.70;;;20.30;76.00;;;;;;5074089;28;20031;-65
2023/07/01 09:03:28;;;;;;;3.63;1.80;;;20.30;76.10;;;;;;5056302;28;20021;-65
2023/07/01 09:05:55;;;;;;;4.35;1.70;;;20.30;76.10;;;;;;5056837;28;20024;-65
2023/07/01 09:08:20;;;;;;;4.13;1.80;;;20.40;76.20;;;;;;5071930;28;20021;-65
2023/07/01 09:10:46;;;;;;;4.05;1.95;;;20.40;76.20;;;;;;5074284;28;20077;-66
2023/07/01 09:13:15;;;;;;;3.50;1.67;;;20.40;76.20;;;;;;5074172;28;20035;-66
2023/07/01 09:15:48;;;;;;;3.40;1.60;;;20.50;76.30;;;;;;5074192;28;20097;-65
2023/07/01 09:18:22;;;;;;;2.92;1.70;;;20.50;76.40;;;;;;5054927;28;20461;-65
2023/07/01 09:20:50;;;;;;;4.18;2.05;;;20.50;77.10;;;;;;5056312;28;20090;-65
2023/07/01 09:23:33;;;;;;;2.83;1.60;;;20.50;76.50;;;;;;5056305;28;20422;-66
2023/07/01 09:26:11;;;;;;;3.95;1.95;;;20.50;76.60;;;;;;5055856;28;20100;-66
2023/07/01 09:28:38;;;;;;;3.70;1.77;;;20.60;76.80;;;;;;5073937;28;20036;-65
2023/07/01 09:31:11;;;;;;;3.22;1.70;;;20.60;76.80;;;;;;5074090;28;20040;-65
2023/07/01 09:33:38;;;;;;;3.67;1.88;;;20.60;76.90;;;;;;5071448;28;20032;-65
2023/07/01 09:36:04;;;;;;;4.13;2.13;;;20.60;77.00;;;;;;5055938;28;20151;-65
2023/07/01 09:38:31;;;;;;;3.45;1.80;;;20.70;77.10;;;;;;5039483;28;20043;-65
2023/07/01 09:41:14;;;;;;;4.80;1.95;;;20.70;77.10;;;;;;5056314;28;20060;-65
2023/07/01 09:43:40;;;;;;;4.10;2.00;;;20.60;77.10;;;;;;5052038;28;20039;-65
2023/07/01 09:46:06;;;;;;;4.22;1.83;;;20.60;77.20;;;;;;5073124;28;20033;-65
2023/07/01 09:48:33;;;;;;;4.30;1.88;;;20.60;77.40;;;;;;5056258;28;20034;-65
2023/07/01 09:51:05;;;;;;;4.35;1.80;;;20.60;77.60;;;;;;5074328;28;20043;-65
2023/07/01 09:53:35;;;;;;;4.80;2.30;;;20.50;77.80;;;;;;5036565;28;20055;-66
2023/07/01 09:56:04;;;;;;;4.18;1.98;;;20.50;78.00;;;;;;5055480;28;20100;-66
2023/07/01 09:58:32;;;;;;;4.78;2.20;;;20.50;78.10;;;;;;5055985;28;20116;-65
2023/07/01 10:00:58;;;;;;;4.70;2.20;;;20.50;78.20;;;;;;5039468;28;20043;-65
2023/07/01 10:03:28;;;;;;;5.15;2.40;;;20.50;78.30;;;;;;5055405;28;20403;-65
2023/07/01 10:05:55;;;;;;;4.53;2.00;;;20.50;78.30;;;;;;5055397;28;20028;-65
2023/07/01 10:08:21;;;;;;;6.10;2.25;;;20.50;78.30;;;;;;5056072;28;20025;-65
2023/07/01 10:11:15;;;;;;;5.10;2.40;;;20.60;78.30;;;;;;5055745;28;20039;-66
2023/07/01 10:13:47;;;;;;;4.78;2.40;;;20.60;78.20;;;;;;5053582;28;20047;-66
2023/07/01 10:16:13;;;;;;;4.75;2.40;;;20.60;78.30;;;;;;5055428;28;20052;-65
2023/07/01 10:18:39;;;;;;;4.43;2.10;;;20.60;78.20;;;;;;5042694;28;20345;-66
2023/07/01 10:21:23;;;;;;;5.25;2.53;;;20.60;78.30;;;;;;5056227;28;20099;-65
2023/07/01 10:23:50;;;;;;;4.88;2.10;;;20.50;78.40;;;;;;5053401;28;20040;-65
2023/07/01 10:26:31;;;;;;;3.85;2.15;;;20.50;78.60;;;;;;5055045;28;20032;-66
2023/07/01 10:28:58;;;;;;;4.10;2.30;;;20.50;78.60;;;;;;5039232;28;20083;-65
2023/07/01 10:31:24;;;;;;;4.57;2.13;;;20.50;78.60;;;;;;5073547;28;20060;-66
2023/07/01 10:33:53;;;;;;;5.10;2.55;;;20.50;78.70;;;;;;5072807;28;20118;-66
2023/07/01 10:36:19;;;;;;;5.28;2.60;;;20.50;78.80;;;;;;5065624;28;20039;-66
2023/07/01 10:38:45;;;;;;;4.35;1.95;;;20.60;78.90;;;;;;5073479;28;20029;-66
2023/07/01 10:41:11;;;;;;;4.60;2.35;;;20.60;79.00;;;;;;5073649;28;20021;-66
2023/07/01 10:43:38;;;;;;;4.45;2.20;;;20.60;79.00;;;;;;5039587;28;20357;-66
2023/07/01 10:46:24;;;;;;;4.70;2.20;;;20.50;79.10;;;;;;5072495;28;20350;-66
2023/07/01 10:49:02;;;;;;;4.45;2.20;;;20.60;79.20;;;;;;5059129;28;20094;-66
2023/07/01 10:51:31;;;;;;;6.15;2.55;;;20.50;79.30;;;;;;5076912;28;20048;-66
2023/07/01 10:54:07;;;;;;;5.55;2.70;;;20.50;79.50;;;;;;5076497;28;20076;-66
2023/07/01 10:56:35;;;;;;;5.38;2.65;;;20.50;79.60;;;;;;5057164;28;20337;-65
2023/07/01 10:59:25;;;;;;;5.03;2.20;;;20.50;79.60;;;;;;5076941;28;20437;-66
2023/07/01 11:02:01;;;;;;;5.72;2.60;;;20.60;79.70;;;;;;5059334;28;20037;-66
2023/07/01 11:04:51;;;;;;;5.03;2.55;;;20.60;79.70;;;;;;5076702;28;20040;-65
2023/07/01 11:07:27;;;;;;;7.68;2.58;;;20.60;79.60;;;;;;5069198;28;20370;-66
2023/07/01 11:09:57;;;;;;;4.95;2.40;;;20.60;79.60;;;;;;5055591;28;20051;-66
2023/07/01 11:12:23;;;;;;;5.15;2.85;;;20.70;79.50;;;;;;5058660;28;20117;-66
2023/07/01 11:14:52;;;;;;;6.90;3.17;;;20.80;79.40;;;;;;5076520;28;20044;-66
2023/07/01 11:17:19;;;;;;;5.70;2.67;;;20.90;79.50;;;;;;5040356;28;20025;-66
2023/07/01 11:19:52;;;;;;;7.07;3.15;;;20.90;79.40;;;;;;5058946;28;20024;-66
2023/07/01 11:22:18;;;;;;;5.75;2.80;;;21.00;80.00;;;;;;5058902;28;20458;-67
2023/07/01 11:24:43;;;;;;;5.05;2.65;;;21.00;79.20;;;;;;5058457;28;20223;-66
2023/07/01 11:27:09;;;;;;;7.35;3.30;;;21.10;79.30;;;;;;5056453;28;20343;-65
2023/07/01 11:29:37;;;;;;;6.70;3.45;;;21.20;79.20;;;;;;5058373;28;20074;-66
2023/07/01 11:32:05;;;;;;;7.10;3.05;;;21.20;79.20;;;;;;5076195;28;20038;-65
2023/07/01 11:34:31;;;;;;;6.55;3.17;;;21.30;79.90;;;;;;5058568;28;20048;-66
2023/07/01 11:36:58;;;;;;;6.97;3.10;;;21.30;79.20;;;;;;5074778;28;20021;-66
2023/07/01 11:39:25;;;;;;;6.60;3.17;;;21.40;79.10;;;;;;5057727;28;20357;-65
2023/07/01 11:41:56;;;;;;;6.03;3.20;;;21.50;78.90;;;;;;5058056;28;20183;-66
2023/07/01 11:44:27;;;;;;;5.88;2.92;;;21.60;78.70;;;;;;5057965;28;20456;-65
2023/07/01 11:46:54;;;;;;;7.00;3.20;;;21.60;78.40;;;;;;5072845;28;20035;-66
2023/07/01 11:49:27;;;;;;;6.82;3.05;;;21.70;78.30;;;;;;5052707;28;20056;-65
2023/07/01 11:52:03;;;;;;;7.43;3.05;;;21.60;78.30;;;;;;5071186;28;20047;-66
2023/07/01 11:54:47;;;;;;;6.85;3.55;;;21.70;78.40;;;;;;5075389;28;20079;-66
2023/07/01 11:57:18;;;;;;;7.45;4.22;;;21.70;78.50;;;;;;5055566;28;20045;-66
2023/07/01 11:59:58;;;;;;;8.82;4.38;;;21.70;78.50;;;;;;5073149;28;20035;-66
2023/07/01 12:02:32;;;;;;;7.80;4.20;;;21.70;78.70;;;;;;5056280;28;20036;-66
2023/07/01 12:04:58;;;;;;;9.38;4.45;;;21.60;78.80;;;;;;5074705;28;20095;-67
2023/07/01 12:07:24;;;;;;;8.13;4.82;;;21.60;78.80;;;;;;5074190;28;20029;-66
2023/07/01 12:09:50;;;;;;;8.13;4.60;;;21.60;78.90;;;;;;5072442;28;20346;-66
2023/07/01 12:12:32;;;;;;;8.43;4.97;;;21.60;78.90;;;;;;5056928;28;20028;-66
2023/07/01 12:15:01;;;;;;;7.10;3.97;;;21.80;79.00;;;;;;5056495;28;20445;-66
2023/07/01 12:17:30;;;;;;;7.60;5.03;;;22.00;78.80;;;;;;5055986;28;20104;-66
2023/07/01 12:19:59;;;;;;;9.30;5.45;;;22.30;78.30;;;;;;5072001;28;20025;-66
2023/07/01 12:22:27;;;;;;;8.40;4.22;;;22.40;77.80;;;;;;5068829;28;20021;-66
2023/07/01 12:24:58;;;;;;;7.50;4.22;;;22.40;77.60;;;;;;5054223;28;20453;-66
2023/07/01 12:27:24;;;;;;;6.88;3.70;;;22.40;77.70;;;;;;5073735;28;20028;-67
2023/07/01 12:29:49;;;;;;;9.07;5.05;;;22.20;77.70;;;;;;5050299;28;20020;-66
2023/07/01 12:32:15;;;;;;;7.20;4.45;;;22.10;78.00;;;;;;5073354;28;20044;-66
2023/07/01 12:34:41;;;;;;;6.97;3.40;;;21.90;78.50;;;;;;5056811;28;20457;-66
2023/07/01 12:37:07;;;;;;;6.00;2.92;;;21.80;78.80;;;;;;5070854;28;20442;-66
2023/07/01 12:39:33;;;;;;;6.13;2.80;;;21.70;79.10;;;;;;5055734;28;20044;-66
2023/07/01 12:41:59;;;;;;;6.00;3.10;;;21.70;79.30;;;;;;5054754;28;20413;-65
2023/07/01 12:44:25;;;;;;;6.38;2.65;;;21.70;79.30;;;;;;5074371;28;20217;-66
2023/07/01 12:46:51;;;;;;;6.05;3.03;;;21.80;79.40;;;;;;5052997;28;20494;-66
2023/07/01 12:49:17;;;;;;;5.28;2.92;;;21.90;79.40;;;;;;5072268;28;20024;-66
2023/07/01 12:51:44;;;;;;;5.18;2.65;;;21.90;79.50;;;;;;5071490;28;20119;-67